Flight Track Log - Related Links

Times and Time Zones

All times are in EST time to prevent confusion due to time zone crossing. See the SWA595 flight status page for this flight to view local times or setup timezone preferences in your user account.

Time Position Orientation Groundspeed Altitude Reporting Facility
EST Latitude Longitude Course Direction KTS MPH feet Rate Location/Type
Tue 02:59:00 PM 42.9197 -87.9061 251° West 172 198 36,000  Level Chicago Center
Tue 03:00:01 PM 42.9131 -87.9728 262° West 184 212 3,700 -14,439 Descending Chicago Center
Tue 03:01:03 PM 42.9069 -88.0594 265° West 210 242 6,400 3,581 Climbing Chicago Center
Tue 03:02:05 PM 42.9122 -88.1606 274° West 216 249 11,100 3,171 Climbing Chicago Center
Tue 03:03:06 PM 42.9214 -88.2611 277° West 265 305 12,900 2,195 Climbing Chicago Center
Tue 03:04:00 PM 42.7377 -88.7249 251° West  Level Estimated
Tue 03:04:08 PM 42.9319 -88.3750 277° West 296 341 15,600  Level Chicago Center
Tue 03:05:09 PM 42.9419 -88.4944 277° West 312 359 18,100 2,537 Climbing Chicago Center
Tue 03:06:11 PM 42.9475 -88.6175 274° West 323 372 20,800 2,274 Climbing Chicago Center
Tue 03:07:13 PM 42.9467 -88.7444 270° West 333 383 22,800 1,854 Climbing Chicago Center
Tue 03:08:14 PM 42.9486 -88.8778 271° West 347 399 24,600 2,000 Climbing Chicago Center
Tue 03:09:16 PM 42.9522 -89.0133 272° West 357 411 26,900 2,371 Climbing Chicago Center
Tue 03:10:18 PM 42.9547 -89.1747 271° West 354 407 29,500 2,098 Climbing Chicago Center
Tue 03:11:19 PM 42.9581 -89.3083 272° West 353 406 31,200 1,610 Climbing Chicago Center
Tue 03:12:21 PM 42.9603 -89.4417 271° West 354 407 32,800 1,694 Climbing Chicago Center
Tue 03:13:23 PM 42.9603 -89.5739 270° West 352 405 34,700 1,561 Climbing Chicago Center
Tue 03:14:24 PM 42.9297 -89.6986 252° West 348 400 36,000 878 Climbing Chicago Center
Tue 03:15:26 PM 42.8978 -89.8269 251° West 357 411 36,500 780 Climbing Chicago Center
Tue 03:16:27 PM 42.8636 -89.9669 252° West 367 422 37,600 732 Climbing Chicago Center
Tue 03:17:29 PM 42.8319 -90.0978 252° West 368 423 38,000 194 Climbing Chicago Center
Tue 03:18:31 PM 42.7986 -90.2281 251° West 367 422 38,000  Level Chicago Center
Tue 03:19:32 PM 42.7644 -90.3589 250° West 369 425 38,000  Level Chicago Center
Tue 03:20:34 PM 42.7317 -90.4900 251° West 369 425 38,000  Level Chicago Center
Tue 03:21:35 PM 42.6931 -90.6436 251° West 363 418 38,000  Level Chicago Center
Tue 03:22:37 PM 42.6603 -90.7725 251° West 363 418 38,000  Level Chicago Center
Tue 03:23:38 PM 42.6272 -90.9003 251° West 360 414 38,000  Level Chicago Center
Tue 03:24:40 PM 42.5944 -91.0281 251° West 361 415 38,000  Level Chicago Center
Tue 03:25:41 PM 42.5597 -91.1556 250° West 359 413 38,000  Level Chicago Center
Tue 03:26:43 PM 42.5267 -91.2839 251° West 360 414 38,000  Level Chicago Center
Tue 03:27:44 PM 42.4917 -91.4156 250° West 369 425 38,000  Level Chicago Center
Tue 03:28:45 PM 42.4567 -91.5469 250° West 369 425 38,000  Level Chicago Center
Tue 03:29:47 PM 42.4219 -91.6778 250° West 368 423 38,000  Level Chicago Center
Tue 03:30:48 PM 42.3789 -91.8361 250° West 372 428 38,000  Level Chicago Center
Tue 03:31:50 PM 42.3442 -91.9681 250° West 371 427 38,000  Level Chicago Center
Tue 03:32:51 PM 42.3081 -92.0983 249° West 370 426 38,000  Level Chicago Center
Tue 03:33:53 PM 42.2728 -92.2286 250° West 371 427 38,000  Level Chicago Center
Tue 03:34:54 PM 42.2364 -92.3603 250° West 374 430 38,000  Level Chicago Center
Tue 03:35:55 PM 42.2000 -92.4900 249° West 373 429 38,000  Level Chicago Center
Tue 03:36:57 PM 42.1631 -92.6214 249° West 375 432 38,000  Level Chicago Center
Tue 03:37:58 PM 42.1269 -92.7542 250° West 378 435 38,000  Level Chicago Center
Tue 03:39:00 PM 42.0903 -92.8833 249° West 373 429 38,000  Level Chicago Center
Tue 03:40:01 PM 42.0464 -93.0392 249° West 372 428 38,000  Level Chicago Center
Tue 03:41:02 PM 42.0094 -93.1686 249° West 372 428 38,000  Level Chicago Center
Tue 03:42:04 PM 41.9728 -93.2975 249° West 372 428 38,000  Level Chicago Center
Tue 03:43:05 PM 41.9369 -93.4292 250° West 375 432 38,000  Level Chicago Center
Tue 03:44:07 PM 41.8989 -93.5592 249° West 376 433 38,000  Level Chicago Center
Tue 03:45:08 PM 41.8606 -93.6881 248° West 375 432 38,000  Level Chicago Center
Tue 03:46:09 PM 41.8236 -93.8158 249° West 372 428 38,000  Level Chicago Center
Tue 03:47:35 PM 41.7669 -94.0100 249° West 366 421 38,000  Level Minneapolis Center
Tue 03:48:36 PM 41.7292 -94.1364 248° West 365 420 38,000  Level Minneapolis Center
Tue 03:49:37 PM 41.6919 -94.2633 249° West 366 421 38,000  Level Minneapolis Center
Tue 03:50:38 PM 41.6539 -94.3906 248° West 367 422 38,000  Level Minneapolis Center
Tue 03:51:40 PM 41.6167 -94.5194 249° West 369 425 38,000  Level Minneapolis Center
Tue 03:52:41 PM 41.5789 -94.6483 249° West 372 428 38,000  Level Minneapolis Center
Tue 03:53:42 PM 41.5408 -94.7753 248° West 370 426 38,000  Level Minneapolis Center
Tue 03:54:44 PM 41.4942 -94.9261 248° West 367 422 38,000  Level Minneapolis Center
Tue 03:55:45 PM 41.4572 -95.0500 248° West 361 415 38,000  Level Minneapolis Center
Tue 03:56:46 PM 41.4186 -95.1756 248° West 364 419 38,000  Level Minneapolis Center
Tue 03:57:47 PM 41.3792 -95.3042 248° West 371 427 38,000  Level Minneapolis Center
Tue 03:58:48 PM 41.3389 -95.4333 247° West 375 432 38,000  Level Minneapolis Center
Tue 03:59:51 PM 41.2986 -95.5622 247° West 376 433 38,000  Level Minneapolis Center
Tue 04:00:52 PM 41.2556 -95.7022 248° West 378 435 38,000  Level Minneapolis Center
Tue 04:01:53 PM 41.2150 -95.8319 247° West 380 437 38,000  Level Minneapolis Center
Tue 04:02:54 PM 41.1753 -95.9606 248° West 377 434 38,000  Level Minneapolis Center
Tue 04:03:56 PM 41.1333 -96.0894 247° West 379 436 38,000  Level Minneapolis Center
Tue 04:04:57 PM 41.0869 -96.2153 244° Southwest 385 443 38,000  Level Minneapolis Center
Tue 04:05:58 PM 41.0406 -96.3453 245° Southwest 388 447 38,000  Level Minneapolis Center
Tue 04:06:59 PM 40.9931 -96.4750 244° Southwest 389 448 38,000  Level Minneapolis Center
Tue 04:08:01 PM 40.9453 -96.6056 244° Southwest 392 451 38,000  Level Minneapolis Center
Tue 04:09:02 PM 40.8892 -96.7614 245° Southwest 391 450 38,000  Level Minneapolis Center
Tue 04:10:03 PM 40.8414 -96.8908 244° Southwest 392 451 38,000  Level Minneapolis Center
Tue 04:11:04 PM 40.7942 -97.0203 244° Southwest 390 449 38,000  Level Minneapolis Center
Tue 04:12:06 PM 40.7478 -97.1478 244° Southwest 388 447 38,000  Level Minneapolis Center
Tue 04:13:07 PM 40.7008 -97.2744 244° Southwest 385 443 38,000  Level Minneapolis Center
Tue 04:14:08 PM 40.6517 -97.4061 244° Southwest 387 445 38,000  Level Minneapolis Center
Tue 04:15:09 PM 40.6042 -97.5344 244° Southwest 389 448 38,000  Level Minneapolis Center
Tue 04:16:11 PM 40.5550 -97.6639 243° Southwest 392 451 38,000  Level Minneapolis Center
Tue 04:17:12 PM 40.5056 -97.7936 243° Southwest 394 453 38,000  Level Minneapolis Center
Tue 04:18:13 PM 40.4569 -97.9222 244° Southwest 393 452 38,000  Level Minneapolis Center
Tue 04:19:15 PM 40.4078 -98.0519 244° Southwest 394 453 38,000  Level Minneapolis Center
Tue 04:20:16 PM 40.3586 -98.1797 243° Southwest 392 451 38,000  Level Minneapolis Center
Tue 04:21:18 PM 40.3086 -98.3092 243° Southwest 394 453 38,000  Level Minneapolis Center
Tue 04:22:19 PM 40.2606 -98.4367 244° Southwest 391 450 38,000  Level Minneapolis Center
Tue 04:23:20 PM 40.2019 -98.5894 243° Southwest 390 449 38,000  Level Minneapolis Center
Tue 04:24:22 PM 40.1500 -98.7186 242° Southwest 396 456 38,000  Level Minneapolis Center
Tue 04:25:23 PM 40.1003 -98.8486 243° Southwest 398 458 38,000  Level Minneapolis Center
Tue 04:26:24 PM 40.0494 -98.9775 243° Southwest 398 458 38,000  Level Minneapolis Center
Tue 04:27:26 PM 39.9978 -99.1061 242° Southwest 399 459 38,000  Level Minneapolis Center
Tue 04:28:30 PM 39.9464 -99.2386 243° Southwest 404 465 38,000  Level Denver Center
Tue 04:29:32 PM 39.8956 -99.3678 243° Southwest 402 463 38,000  Level Denver Center
Tue 04:30:33 PM 39.8422 -99.4994 242° Southwest 407 468 38,000  Level Denver Center
Tue 04:31:35 PM 39.7789 -99.6578 243° Southwest 410 472 38,000  Level Denver Center
Tue 04:32:36 PM 39.7258 -99.7881 242° Southwest 410 472 38,000  Level Denver Center
Tue 04:33:38 PM 39.6719 -99.9183 242° Southwest 409 471 38,000  Level Denver Center
Tue 04:34:40 PM 39.6206 -100.0489 243° Southwest 409 471 38,000  Level Denver Center
Tue 04:35:41 PM 39.5592 -100.1942 241° Southwest 411 473 38,000  Level Denver Center
Tue 04:36:43 PM 39.5083 -100.3228 243° Southwest 418 481 38,000  Level Denver Center
Tue 04:37:45 PM 39.4561 -100.4467 241° Southwest 411 473 38,000 -488 Level Denver Center
Tue 04:38:46 PM 39.3956 -100.5933 242° Southwest 412 474 37,000 -927 Descending Denver Center
Tue 04:39:48 PM 39.3431 -100.7197 242° Southwest 417 480 36,100 -968 Descending Denver Center
Tue 04:40:50 PM 39.2831 -100.8622 241° Southwest 406 467 35,000 -976 Descending Denver Center
Tue 04:41:51 PM 39.2300 -100.9864 241° Southwest 411 473 34,100 -927 Descending Denver Center
Tue 04:42:53 PM 39.1753 -101.1200 242° Southwest 432 497 33,100 -968 Descending Denver Center
Tue 04:43:55 PM 39.1106 -101.2736 242° Southwest 438 504 32,100 -537 Descending Denver Center
Tue 04:44:56 PM 39.0542 -101.4047 241° Southwest 439 505 32,000 -49 Descending Denver Center
Tue 04:45:58 PM 38.9919 -101.5506 241° Southwest 437 503 32,000  Level Denver Center
Tue 04:47:00 PM 38.9264 -101.7028 241° Southwest 438 504 32,000  Level Denver Center
Tue 04:48:01 PM 38.8706 -101.8336 241° Southwest 437 503 32,000  Level Denver Center
Tue 04:49:03 PM 38.8136 -101.9636 241° Southwest 439 505 32,000  Level Denver Center
Tue 04:50:05 PM 38.7489 -102.1122 241° Southwest 430 495 32,000  Level Denver Center
Tue 04:51:07 PM 38.6942 -102.2392 241° Southwest 428 493 32,000  Level Denver Center
Tue 04:52:08 PM 38.6300 -102.3839 240° Southwest 420 483 32,000  Level Denver Center
Tue 04:53:10 PM 38.5764 -102.5078 241° Southwest 418 481 32,000  Level Denver Center
Tue 04:54:12 PM 38.5133 -102.6506 241° Southwest 414 476 32,000  Level Denver Center
Tue 04:55:13 PM 38.4589 -102.7736 241° Southwest 416 479 32,000  Level Denver Center
Tue 04:56:15 PM 38.3936 -102.9169 240° Southwest 420 483 32,000  Level Denver Center
Tue 04:57:17 PM 38.3397 -103.0383 241° Southwest 414 476 32,000  Level Denver Center
Tue 04:58:30 PM 38.2817 -103.1669 240° Southwest 412 474 32,000  Level Denver Center
Tue 04:59:34 PM 38.2089 -103.3275 240° Southwest 411 473 32,000  Level Denver Center
Tue 05:00:36 PM 38.1539 -103.4489 240° Southwest 414 476 32,000  Level Denver Center
Tue 05:01:38 PM 38.0917 -103.5889 241° Southwest 410 472 32,000  Level Denver Center
Tue 05:02:40 PM 38.0364 -103.7092 240° Southwest 412 474 32,000  Level Denver Center
Tue 05:03:41 PM 37.9725 -103.8472 240° Southwest 410 472 32,000  Level Denver Center
Tue 05:04:43 PM 37.9169 -103.9658 239° Southwest 411 473 32,000  Level Denver Center
Tue 05:05:45 PM 37.8525 -104.1064 240° Southwest 415 478 32,000  Level Denver Center
Tue 05:06:47 PM 37.7967 -104.2256 239° Southwest 416 479 32,000  Level Denver Center
Tue 05:07:49 PM 37.7322 -104.3647 240° Southwest 415 478 32,000  Level Denver Center
Tue 05:08:50 PM 37.6769 -104.4839 240° Southwest 414 476 32,000  Level Denver Center
Tue 05:09:52 PM 37.6114 -104.6233 239° Southwest 416 479 32,000  Level Denver Center
Tue 05:10:54 PM 37.5556 -104.7414 239° Southwest 412 474 32,000  Level Denver Center
Tue 05:11:56 PM 37.4894 -104.8800 239° Southwest 414 476 32,000  Level Denver Center
Tue 05:12:57 PM 37.4322 -104.9975 239° Southwest 413 475 32,000  Level Denver Center
Tue 05:14:11 PM 37.3764 -105.1131 239° Southwest 408 470 32,000  Level Denver Center
Tue 05:15:13 PM 37.3036 -105.2717 240° Southwest 403 464 32,000  Level Denver Center
Tue 05:16:27 PM 37.2375 -105.4019 238° Southwest 404 465 32,000  Level Denver Center
Tue 05:17:29 PM 37.1722 -105.5369 239° Southwest 404 465 32,000  Level Denver Center
Tue 05:18:31 PM 37.1069 -105.6719 239° Southwest 406 467 32,000  Level Denver Center
Tue 05:19:32 PM 37.0511 -105.7881 239° Southwest 406 467 32,000  Level Denver Center
Tue 05:20:34 PM 36.9858 -105.9231 239° Southwest 406 467 32,000  Level Denver Center
Tue 05:21:36 PM 36.9381 -106.0206 239° Southwest 409 471 32,000  Level Denver Center
Tue 05:22:38 PM 36.8706 -106.1564 238° Southwest 410 472 32,000  Level Denver Center
Tue 05:23:39 PM 36.8019 -106.2961 239° Southwest 413 475 32,000  Level Denver Center
Tue 05:24:41 PM 36.7397 -106.4211 238° Southwest 412 474 32,000  Level Denver Center
Tue 05:25:43 PM 36.6769 -106.5506 239° Southwest 415 478 32,000  Level Denver Center
Tue 05:26:44 PM 36.6175 -106.6672 238° Southwest 417 480 32,000  Level Denver Center
Tue 05:27:46 PM 36.5572 -106.7839 237° Southwest 418 481 32,000  Level Denver Center
Tue 05:28:48 PM 36.4894 -106.9219 239° Southwest 419 482 32,000  Level Denver Center
Tue 05:29:49 PM 36.4292 -107.0397 238° Southwest 421 484 32,000  Level Denver Center
Tue 05:30:59 PM 36.3503 -107.1969 238° Southwest 419 482 32,000  Level Albuquerque Center
Tue 05:32:01 PM 36.2914 -107.3147 238° Southwest 420 483 32,000  Level Albuquerque Center
Tue 05:33:03 PM 36.2194 -107.4522 237° Southwest 422 486 32,000  Level Albuquerque Center
Tue 05:34:05 PM 36.1597 -107.5697 238° Southwest 422 486 32,000  Level Albuquerque Center
Tue 05:35:06 PM 36.0989 -107.6875 237° Southwest 423 487 32,000  Level Albuquerque Center
Tue 05:36:08 PM 36.0281 -107.8258 238° Southwest 425 489 32,000  Level Albuquerque Center
Tue 05:37:10 PM 35.9667 -107.9444 237° Southwest 426 490 32,000  Level Albuquerque Center
Tue 05:38:12 PM 35.8939 -108.0822 237° Southwest 428 493 32,000  Level Albuquerque Center
Tue 05:39:13 PM 35.8325 -108.2014 238° Southwest 429 494 32,000  Level Albuquerque Center
Tue 05:40:15 PM 35.7703 -108.3189 237° Southwest 427 491 32,000  Level Albuquerque Center
Tue 05:41:17 PM 35.6794 -108.4503 230° Southwest 443 510 32,000  Level Albuquerque Center
Tue 05:42:18 PM 35.6011 -108.5644 230° Southwest 450 518 32,000  Level Albuquerque Center
Tue 05:43:20 PM 35.5111 -108.6983 230° Southwest 452 520 32,000  Level Albuquerque Center
Tue 05:44:22 PM 35.4331 -108.8122 230° Southwest 452 520 32,000  Level Albuquerque Center
Tue 05:45:23 PM 35.3556 -108.9250 230° Southwest 451 519 32,000  Level Albuquerque Center
Tue 05:46:25 PM 35.2658 -109.0561 230° Southwest 448 516 32,000  Level Albuquerque Center
Tue 05:47:27 PM 35.1886 -109.1672 230° Southwest 447 514 32,000  Level Albuquerque Center
Tue 05:48:28 PM 35.0978 -109.2967 229° Southwest 448 516 32,000  Level Albuquerque Center
Tue 05:49:30 PM 35.0206 -109.4072 230° Southwest 447 514 32,000  Level Albuquerque Center
Tue 05:50:32 PM 34.9433 -109.5200 230° Southwest 449 517 32,000  Level Albuquerque Center
Tue 05:51:33 PM 34.8525 -109.6492 229° Southwest 448 516 32,000  Level Albuquerque Center
Tue 05:52:35 PM 34.7742 -109.7611 230° Southwest 451 519 32,000  Level Albuquerque Center
Tue 05:53:36 PM 34.6922 -109.8978 234° Southwest 448 516 32,000  Level Albuquerque Center
Tue 05:54:38 PM 34.6447 -110.0272 246° West 440 506 32,000  Level Albuquerque Center
Tue 05:55:39 PM 34.5917 -110.1844 248° West 448 516 32,000 -49 Level Albuquerque Center
Tue 05:56:41 PM 34.5444 -110.3158 246° West 445 512 31,900 -919 Descending Albuquerque Center
Tue 05:57:43 PM 34.4942 -110.4325 242° Southwest 429 494 30,100 -1,512 Descending Albuquerque Center
Tue 05:58:44 PM 34.4492 -110.5603 247° West 420 483 28,800 -1,610 Descending Albuquerque Center
Tue 05:59:46 PM 34.4033 -110.6778 245° Southwest 394 453 26,800 -2,195 Descending Albuquerque Center
Tue 06:00:47 PM 34.3422 -110.8125 241° Southwest 385 443 24,300 -2,146 Descending Albuquerque Center
Tue 06:01:49 PM 34.2708 -110.9036 227° Southwest 373 429 22,400 -1,854 Descending Albuquerque Center
Tue 06:02:50 PM 34.2008 -110.9942 227° Southwest 371 427 20,500 -1,854 Descending Albuquerque Center
Tue 06:03:52 PM 34.1333 -111.0808 227° Southwest 361 415 18,600 -1,707 Descending Albuquerque Center
Tue 06:04:53 PM 34.0683 -111.1650 227° Southwest 350 403 17,000 -1,707 Descending Albuquerque Center
Tue 06:05:55 PM 34.0047 -111.2475 227° Southwest 341 392 15,100 -1,805 Descending Albuquerque Center
Tue 06:06:56 PM 33.9428 -111.3275 227° Southwest 328 377 13,300 -1,415 Descending Albuquerque Center
Tue 06:07:58 PM 33.8822 -111.4033 226° Southwest 316 364 12,200 -1,122 Descending Albuquerque Center
Tue 06:08:59 PM 33.8161 -111.4617 216° Southwest 292 336 11,000 -1,220 Descending Albuquerque Center
Tue 06:10:01 PM 33.7367 -111.5297 215° Southwest 290 334 9,700 -1,073 Descending Albuquerque Center
Tue 06:11:02 PM 33.6750 -111.5825 215° Southwest 274 315 8,800 -913 Descending Albuquerque Center
Tue 06:13:05 PM 33.5639 -111.6758 215° Southwest 240 276 6,900 -1,005 Descending Albuquerque Center
Tue 06:14:07 PM 33.5092 -111.7217 215° Southwest 241 277 5,700 -1,024 Descending Albuquerque Center
Tue 06:15:08 PM 33.4592 -111.7758 222° Southwest 245 282 4,800 -1,073 Descending Albuquerque Center
Tue 06:16:10 PM 33.4414 -111.8475 253° West 237 273 3,500 -1,220 Descending Albuquerque Center
Tue 06:17:11 PM 33.4406 -111.9161 269° West 208 239 2,300 -976 Descending Albuquerque Center
Tue 06:18:13 PM 33.4411 -111.9658 271° West 155 178 1,500 -634 Descending Albuquerque Center
Tue 06:19:14 PM 33.4389 -112.0214 267° West 142 163 1,000 -492 Descending Albuquerque Center

Login

Don't have an account? Register now (free) for customized features, flight alerts, and more!